Time;durP1;ratioP1;P1;durP2;ratioP2;P2;SDS_P1;SDS_P2;PMS_P1;PMS_P2;Temp;Humidity;BMP_temperature;BMP_pressure;BME280_temperature;BME280_humidity;BME280_pressure;Samples;Min_cycle;Max_cycle;Signal;HPM_P1;HPM_P2
2021/11/07 00:00:29;;;;;;;;;42.75;36.00;;;;;9.20;78.40;101691.34;5015356;28;46216;-69
2021/11/07 00:03:22;;;;;;;;;31.00;28.50;;;;;9.25;78.11;101682.53;5012740;28;45335;-70
2021/11/07 00:10:54;;;;;;;;;30.00;29.75;;;;;9.38;78.01;101691.91;5012654;28;46040;-69
2021/11/07 00:13:25;;;;;;;;;37.00;30.00;;;;;9.39;77.91;101691.03;5013064;27;45381;-69
2021/11/07 00:15:52;;;;;;;;;35.50;32.50;;;;;9.40;77.75;101674.38;5014009;28;45225;-69
2021/11/07 00:18:25;;;;;;;;;30.75;30.00;;;;;9.46;76.82;101676.88;5012963;28;45544;-70
2021/11/07 00:21:14;;;;;;;;;35.75;30.75;;;;;9.45;76.91;101669.91;5015979;27;45428;-70
2021/11/07 00:23:56;;;;;;;;;33.75;27.00;;;;;9.48;77.24;101661.13;5012572;28;45392;-69
2021/11/07 00:26:29;;;;;;;;;38.25;30.75;;;;;9.48;77.22;101654.09;5012730;28;45300;-70
2021/11/07 00:29:01;;;;;;;;;30.75;28.25;;;;;9.50;77.04;101661.97;5013086;28;45348;-69
2021/11/07 00:31:45;;;;;;;;;33.25;29.75;;;;;9.50;76.74;101654.06;5014002;28;45447;-69
2021/11/07 00:39:41;;;;;;;;;36.50;29.50;;;;;9.46;76.57;101642.75;5016517;28;45371;-69
2021/11/07 00:47:40;;;;;;;;;30.25;25.25;;;;;9.53;76.17;101653.13;5001556;28;45388;-68
2021/11/07 00:50:10;;;;;;;;;27.00;24.00;;;;;9.54;76.37;101657.50;5012021;28;45380;-70
2021/11/07 00:52:48;;;;;;;;;34.50;28.75;;;;;9.46;76.04;101645.38;5011460;27;47279;-71
2021/11/07 00:55:32;;;;;;;;;28.75;27.00;;;;;9.55;76.12;101648.75;5014832;27;45439;-69
2021/11/07 00:58:07;;;;;;;;;29.25;26.00;;;;;9.54;76.14;101655.75;5012201;28;45262;-70
2021/11/07 01:03:01;;;;;;;;;32.25;27.25;;;;;9.61;75.86;101643.38;5015278;28;45684;-69
2021/11/07 01:05:30;;;;;;;;;28.25;26.75;;;;;9.53;75.71;101629.50;5100701;27;45322;-70
2021/11/07 01:07:56;;;;;;;;;25.75;23.00;;;;;9.65;75.43;101634.53;5015343;28;45451;-70
2021/11/07 01:10:23;;;;;;;;;23.25;22.25;;;;;9.66;75.40;101633.66;5015595;28;45330;-72
2021/11/07 01:12:49;;;;;;;;;23.25;21.50;;;;;9.68;75.63;101623.09;5015019;28;46206;-68
2021/11/07 01:15:15;;;;;;;;;25.00;23.00;;;;;9.68;75.88;101626.59;5014911;28;45407;-70
2021/11/07 01:17:42;;;;;;;;;21.25;20.75;;;;;9.67;75.58;101618.75;5014988;28;45394;-70
2021/11/07 01:20:10;;;;;;;;;26.00;24.50;;;;;9.68;75.31;101616.09;5015306;28;45519;-68
2021/11/07 01:23:00;;;;;;;;;28.75;25.00;;;;;9.68;76.29;101608.22;5014779;28;46054;-70
2021/11/07 01:25:25;;;;;;;;;23.50;22.75;;;;;9.69;76.01;101598.56;5014848;28;45263;-70
2021/11/07 01:27:52;;;;;;;;;21.50;18.50;;;;;9.71;75.90;101599.38;5015384;28;45331;-70
2021/11/07 01:30:23;;;;;;;;;24.75;21.50;;;;;9.71;75.97;101594.13;5015819;28;45319;-71
2021/11/07 01:32:55;;;;;;;;;20.25;20.25;;;;;9.70;76.15;101585.41;5013694;28;46982;-69
2021/11/07 01:35:25;;;;;;;;;20.00;19.75;;;;;9.68;75.88;101579.31;5014861;28;45347;-69
2021/11/07 01:40:22;;;;;;;;;19.00;16.75;;;;;9.70;76.16;101574.91;5018526;28;45518;-69
2021/11/07 01:42:55;;;;;;;;;19.50;19.00;;;;;9.68;76.23;101565.28;5012895;28;47216;-68
2021/11/07 01:45:26;;;;;;;;;21.00;19.50;;;;;9.69;76.20;101554.78;5014508;28;45338;-69
2021/11/07 01:48:05;;;;;;;;;17.75;17.75;;;;;9.63;76.20;101547.03;5015008;28;45255;-69
2021/11/07 01:50:34;;;;;;;;;21.50;18.75;;;;;9.65;76.68;101548.69;5014610;28;45414;-70
2021/11/07 01:53:09;;;;;;;;;21.25;19.25;;;;;9.70;76.67;101553.88;5015313;28;45904;-69
2021/11/07 01:55:35;;;;;;;;;19.25;16.50;;;;;9.71;77.26;101552.09;5018621;28;45659;-68
2021/11/07 01:58:00;;;;;;;;;20.00;17.50;;;;;9.71;76.45;101558.22;5107909;27;45349;-70
2021/11/07 02:00:30;;;;;;;;;19.50;17.25;;;;;9.74;76.54;101557.28;5014264;27;45548;-70
2021/11/07 02:02:56;;;;;;;;;21.25;16.00;;;;;9.74;77.06;101563.41;5016478;28;46066;-70
2021/11/07 02:05:22;;;;;;;;;19.50;19.00;;;;;9.77;77.10;101555.47;5015271;28;45313;-69
2021/11/07 02:07:48;;;;;;;;;20.50;17.50;;;;;9.74;77.04;101545.03;5017881;28;45328;-69
2021/11/07 02:10:16;;;;;;;;;23.25;18.75;;;;;9.78;77.14;101554.56;5019691;28;45336;-69
2021/11/07 02:12:42;;;;;;;;;20.75;20.00;;;;;9.82;77.12;101557.13;5013740;28;46655;-70
2021/11/07 02:15:11;;;;;;;;;20.00;18.00;;;;;9.81;77.54;101551.00;5014284;28;45422;-70
2021/11/07 02:17:37;;;;;;;;;15.50;14.75;;;;;9.81;77.35;101542.28;5014432;28;45292;-69
2021/11/07 02:20:11;;;;;;;;;19.00;18.00;;;;;9.83;77.68;101545.72;5014458;28;45472;-69
2021/11/07 02:22:38;;;;;;;;;20.25;18.25;;;;;9.85;77.75;101546.56;5015610;28;45435;-69
2021/11/07 02:25:05;;;;;;;;;21.00;19.00;;;;;9.87;77.63;101542.97;5100596;27;45349;-69
2021/11/07 02:27:30;;;;;;;;;16.75;15.75;;;;;9.82;77.43;101534.34;5017339;28;45261;-69
2021/11/07 02:29:57;;;;;;;;;19.75;18.00;;;;;9.87;77.71;101539.50;5014690;28;45183;-68
2021/11/07 02:32:22;;;;;;;;;20.75;18.00;;;;;9.86;78.33;101535.16;5014309;28;45305;-69
2021/11/07 02:34:48;;;;;;;;;17.25;17.25;;;;;9.90;78.48;101539.44;5014209;28;45229;-69
2021/11/07 02:37:15;;;;;;;;;18.25;16.50;;;;;9.88;78.88;101526.31;5016428;28;45348;-70
2021/11/07 02:39:40;;;;;;;;;21.75;20.50;;;;;9.86;79.84;101525.50;5017129;28;45466;-74
2021/11/07 02:42:06;;;;;;;;;14.50;14.00;;;;;9.87;80.14;101529.00;5015010;28;46452;-69
2021/11/07 02:44:37;;;;;;;;;19.25;17.75;;;;;9.86;80.43;101522.00;5013867;28;45408;-70
2021/11/07 02:47:06;;;;;;;;;21.25;21.25;;;;;9.85;80.85;101520.28;5014535;28;45336;-68
2021/11/07 02:49:34;;;;;;;;;20.75;18.75;;;;;9.76;81.48;101500.31;5015040;28;45521;-69
2021/11/07 02:52:01;;;;;;;;;22.75;18.75;;;;;9.76;81.75;101510.81;5015678;28;46041;-69
2021/11/07 02:54:27;;;;;;;;;16.50;16.25;;;;;9.70;82.16;101503.97;5014404;28;45246;-69
2021/11/07 02:56:54;;;;;;;;;20.50;18.00;;;;;9.65;82.61;101498.78;5013122;28;45328;-69
2021/11/07 02:59:23;;;;;;;;;13.75;13.75;;;;;9.64;82.99;101494.44;5014651;28;45279;-69
2021/11/07 03:01:49;;;;;;;;;23.25;20.25;;;;;9.63;83.37;101494.47;5013994;27;45604;-69
2021/11/07 03:04:15;;;;;;;;;19.00;19.00;;;;;9.60;83.36;101490.16;5013437;28;45190;-70
2021/11/07 03:06:42;;;;;;;;;18.75;17.25;;;;;9.62;83.61;101498.84;5013799;28;45218;-68
2021/11/07 03:09:12;;;;;;;;;20.75;18.75;;;;;9.61;83.85;101497.13;5013809;28;45532;-69
2021/11/07 03:11:42;;;;;;;;;21.25;19.50;;;;;9.41;84.19;101459.91;5013446;28;45428;-70
2021/11/07 03:14:12;;;;;;;;;24.50;20.00;;;;;9.59;84.52;101495.44;5014874;28;45243;-69
2021/11/07 03:16:38;;;;;;;;;20.75;15.50;;;;;9.60;84.73;101484.88;5013378;28;45456;-69
2021/11/07 03:19:04;;;;;;;;;20.25;19.00;;;;;9.57;84.85;101487.59;5013641;28;45536;-68
2021/11/07 03:21:29;;;;;;;;;22.25;20.00;;;;;9.56;85.23;101488.47;5013477;28;45259;-71
2021/11/07 03:23:54;;;;;;;;;24.50;19.25;;;;;9.48;85.89;101483.38;5098564;27;45239;-68
2021/11/07 03:26:23;;;;;;;;;25.00;22.00;;;;;9.49;86.01;101485.09;5012781;28;45331;-70
2021/11/07 03:28:50;;;;;;;;;17.50;17.25;;;;;9.48;85.91;101487.78;5020254;27;45238;-69
2021/11/07 03:31:28;;;;;;;;;20.50;19.50;;;;;9.46;86.48;101482.53;5019703;28;47177;-70
2021/11/07 03:33:58;;;;;;;;;25.00;19.25;;;;;9.43;86.17;101481.75;5011810;28;45635;-70
2021/11/07 03:36:24;;;;;;;;;24.00;21.00;;;;;9.40;86.24;101481.81;5015131;27;45365;-69
2021/11/07 03:38:52;;;;;;;;;21.50;19.00;;;;;9.40;86.64;101474.78;5015359;28;45582;-70
2021/11/07 03:41:18;;;;;;;;;21.25;18.25;;;;;9.38;87.25;101473.97;5013540;28;46315;-69
2021/11/07 03:43:44;;;;;;;;;18.50;18.25;;;;;9.38;87.00;101478.38;5013213;28;45257;-69
2021/11/07 03:46:11;;;;;;;;;25.75;20.50;;;;;9.35;87.30;101471.41;5013413;28;45308;-70
2021/11/07 03:48:36;;;;;;;;;24.75;22.25;;;;;9.39;87.20;101477.47;5018281;28;44890;-69
2021/11/07 03:51:04;;;;;;;;;27.75;25.00;;;;;9.37;86.86;101474.88;5013844;28;45911;-70
2021/11/07 03:53:30;;;;;;;;;17.00;16.75;;;;;9.38;87.10;101473.13;5014261;28;45551;-70
2021/11/07 03:55:56;;;;;;;;;22.75;22.00;;;;;9.35;86.90;101467.03;5016014;28;45347;-69
2021/11/07 03:58:22;;;;;;;;;20.50;18.75;;;;;9.40;87.44;101481.81;5013958;28;45525;-70
2021/11/07 04:00:49;;;;;;;;;19.75;18.50;;;;;9.38;87.70;101473.13;5013368;28;46873;-68
2021/11/07 04:03:15;;;;;;;;;22.50;22.50;;;;;9.38;87.82;101476.59;5014162;28;45517;-70
2021/11/07 04:05:40;;;;;;;;;20.00;19.25;;;;;9.44;87.67;101470.34;5012434;28;45278;-70
2021/11/07 04:08:07;;;;;;;;;22.25;18.75;;;;;9.44;87.75;101476.47;5011771;28;45451;-71
2021/11/07 04:10:34;;;;;;;;;17.50;17.25;;;;;9.46;87.57;101472.03;5012572;28;46996;-70
2021/11/07 04:12:59;;;;;;;;;17.00;16.50;;;;;9.46;87.28;101465.94;5012754;28;45390;-70
2021/11/07 04:15:26;;;;;;;;;18.25;18.25;;;;;9.47;87.45;101465.88;5012982;28;45385;-69
2021/11/07 04:17:51;;;;;;;;;24.25;20.00;;;;;9.44;87.17;101458.06;5013390;28;45537;-70
2021/11/07 04:20:16;;;;;;;;;20.00;19.25;;;;;9.49;87.25;101455.38;5012648;28;45412;-69
2021/11/07 04:22:42;;;;;;;;;20.75;19.50;;;;;9.49;87.73;101445.72;5012067;28;45425;-71
2021/11/07 04:25:09;;;;;;;;;23.25;21.75;;;;;9.50;87.55;101452.69;5014581;28;45621;-69
2021/11/07 04:27:35;;;;;;;;;21.50;21.00;;;;;9.50;87.33;101452.69;5012791;28;45444;-69
2021/11/07 04:30:01;;;;;;;;;21.00;19.00;;;;;9.49;87.46;101450.97;5012873;28;46063;-69
2021/11/07 04:32:26;;;;;;;;;20.75;19.00;;;;;9.53;87.64;101450.91;5012385;28;45345;-68
2021/11/07 04:34:52;;;;;;;;;22.50;18.75;;;;;9.50;87.58;101438.72;5013176;28;45348;-69
2021/11/07 04:37:18;;;;;;;;;23.50;20.50;;;;;9.59;87.10;101442.91;5016229;27;45362;-69
2021/11/07 04:39:45;;;;;;;;;20.50;19.25;;;;;9.60;87.39;101444.63;5015677;28;46031;-69
2021/11/07 04:42:11;;;;;;;;;21.75;18.00;;;;;9.61;87.10;101444.59;5017967;28;45356;-69
2021/11/07 04:44:36;;;;;;;;;25.00;20.25;;;;;9.62;86.95;101443.69;5016424;28;45377;-70
2021/11/07 04:47:02;;;;;;;;;18.00;16.25;;;;;9.65;87.25;101441.00;5024320;28;45631;-69
2021/11/07 04:49:28;;;;;;;;;21.25;17.00;;;;;9.60;86.59;101436.75;5020067;28;46588;-70
2021/11/07 04:51:53;;;;;;;;;18.50;17.00;;;;;9.66;86.77;101428.75;5015658;28;45502;-69
2021/11/07 04:54:19;;;;;;;;;18.00;16.50;;;;;9.69;86.65;101428.66;5016285;28;45351;-69
2021/11/07 04:56:44;;;;;;;;;23.25;20.50;;;;;9.71;86.63;101415.47;5015447;28;45317;-70
2021/11/07 04:59:10;;;;;;;;;20.75;16.50;;;;;9.70;86.42;101412.00;5014974;28;47035;-69
2021/11/07 05:01:37;;;;;;;;;21.00;17.75;;;;;9.69;86.56;101405.03;5015099;28;45260;-68
2021/11/07 05:04:03;;;;;;;;;18.75;17.00;;;;;9.69;86.81;101405.03;5015350;28;45374;-69
2021/11/07 05:06:29;;;;;;;;;24.75;18.25;;;;;9.68;86.35;101402.41;5015557;28;45156;-69
2021/11/07 05:08:54;;;;;;;;;18.50;16.75;;;;;9.71;86.40;101403.22;5014796;27;45677;-68
2021/11/07 05:11:20;;;;;;;;;20.25;18.50;;;;;9.70;86.23;101398.88;5018592;28;45322;-71
2021/11/07 05:13:45;;;;;;;;;21.25;20.00;;;;;9.71;86.40;101405.84;5015763;28;45301;-69
2021/11/07 05:16:11;;;;;;;;;20.75;19.00;;;;;9.70;86.20;101398.00;5016347;28;45435;-69
2021/11/07 05:18:37;;;;;;;;;21.00;19.00;;;;;9.68;86.42;101384.91;5016005;28;45690;-68
2021/11/07 05:21:02;;;;;;;;;19.75;19.75;;;;;9.71;86.21;101382.22;5015359;28;45432;-68
2021/11/07 05:23:28;;;;;;;;;20.00;19.00;;;;;9.70;85.88;101384.84;5020017;28;45248;-69
2021/11/07 05:25:55;;;;;;;;;23.75;19.25;;;;;9.67;86.16;101383.19;5019049;28;45245;-68
2021/11/07 05:28:21;;;;;;;;;18.25;17.50;;;;;9.70;86.10;101398.00;5014442;28;45985;-69
2021/11/07 05:30:47;;;;;;;;;21.75;18.00;;;;;9.70;86.07;101392.72;5014695;28;45438;-68
2021/11/07 05:33:14;;;;;;;;;19.50;18.75;;;;;9.69;86.22;101391.88;5014803;28;45289;-68
2021/11/07 05:35:39;;;;;;;;;23.75;20.00;;;;;9.69;86.07;101397.16;5021386;28;45495;-69
2021/11/07 05:38:05;;;;;;;;;24.50;20.00;;;;;9.71;86.06;101391.84;5018207;28;46918;-69
2021/11/07 05:40:31;;;;;;;;;18.75;15.50;;;;;9.67;86.06;101377.94;5020514;28;45403;-69
2021/11/07 05:42:56;;;;;;;;;22.25;18.25;;;;;9.72;85.96;101377.81;5018778;28;45189;-69
2021/11/07 05:45:21;;;;;;;;;19.00;17.00;;;;;9.71;86.23;101376.06;5018420;28;45586;-69
2021/11/07 05:47:49;;;;;;;;;20.75;20.25;;;;;9.72;86.12;101372.53;5014199;28;45394;-70
2021/11/07 05:50:14;;;;;;;;;24.00;20.00;;;;;9.78;86.20;101378.53;5014539;28;45226;-70
2021/11/07 05:52:41;;;;;;;;;21.75;18.75;;;;;9.78;86.52;101372.41;5014870;28;45190;-70
2021/11/07 05:55:07;;;;;;;;;18.00;17.25;;;;;9.81;86.35;101380.22;5016001;28;45250;-72
2021/11/07 05:57:33;;;;;;;;;20.50;17.25;;;;;9.74;86.04;101353.22;5017135;28;45405;-68
2021/11/07 05:59:59;;;;;;;;;21.50;19.75;;;;;9.77;86.48;101361.03;5014593;28;45393;-69
2021/11/07 06:02:25;;;;;;;;;19.50;19.00;;;;;9.84;85.93;101374.88;5014384;28;45340;-70
2021/11/07 06:04:50;;;;;;;;;20.25;17.50;;;;;9.85;86.24;101379.22;5014097;28;45332;-69
2021/11/07 06:07:16;;;;;;;;;20.75;17.50;;;;;9.77;86.23;101366.28;5014195;28;45492;-69
2021/11/07 06:09:41;;;;;;;;;19.25;18.25;;;;;9.86;86.16;101388.84;5015363;28;45293;-69
2021/11/07 06:12:07;;;;;;;;;19.50;17.00;;;;;9.87;86.19;101382.69;5014785;28;45513;-68
2021/11/07 06:14:33;;;;;;;;;18.50;17.50;;;;;9.90;86.16;101384.38;5014676;28;45275;-68
2021/11/07 06:16:59;;;;;;;;;19.00;16.75;;;;;9.87;86.27;101381.84;5013994;28;46604;-69
2021/11/07 06:19:24;;;;;;;;;20.00;17.25;;;;;9.94;86.14;101393.91;5014182;28;45245;-70
2021/11/07 06:21:51;;;;;;;;;17.25;17.25;;;;;9.96;86.30;101397.38;5015458;28;45342;-69
2021/11/07 06:24:24;;;;;;;;;18.50;18.00;;;;;10.00;86.10;101382.38;5014351;28;45368;-69
2021/11/07 06:26:49;;;;;;;;;19.50;19.00;;;;;10.01;85.53;101381.47;5013772;28;47270;-69
2021/11/07 06:29:15;;;;;;;;;19.25;18.00;;;;;9.99;86.18;101381.53;5013856;28;45236;-68
2021/11/07 06:31:40;;;;;;;;;22.00;18.00;;;;;10.02;85.89;101381.44;5014215;28;45342;-69
2021/11/07 06:34:06;;;;;;;;;18.00;17.00;;;;;10.02;85.92;101391.97;5013137;28;45398;-70
2021/11/07 06:36:32;;;;;;;;;23.75;18.00;;;;;10.05;85.77;101385.75;5014422;28;46184;-69
2021/11/07 06:38:58;;;;;;;;;21.75;20.75;;;;;10.06;86.30;101376.97;5014427;28;45251;-68
2021/11/07 06:41:23;;;;;;;;;19.50;17.75;;;;;10.09;86.10;101372.50;5014071;28;45392;-70
2021/11/07 06:43:49;;;;;;;;;21.00;16.25;;;;;10.06;85.82;101372.59;5015105;28;45366;-69
2021/11/07 06:46:14;;;;;;;;;17.25;15.75;;;;;10.13;86.02;101367.16;5013385;28;46983;-70
2021/11/07 06:48:41;;;;;;;;;23.75;21.00;;;;;10.14;85.89;101371.53;5013883;28;45407;-70
2021/11/07 06:51:07;;;;;;;;;19.25;17.75;;;;;10.16;85.70;101364.47;5013749;28;45379;-70
2021/11/07 06:53:33;;;;;;;;;17.25;17.00;;;;;10.17;85.45;101364.44;5014128;27;45389;-69
2021/11/07 06:55:58;;;;;;;;;23.00;18.50;;;;;10.17;85.69;101364.44;5013410;28;46397;-69
2021/11/07 06:58:24;;;;;;;;;19.25;17.50;;;;;10.18;85.42;101375.81;5012393;28;45196;-70
2021/11/07 07:00:49;;;;;;;;;24.00;19.00;;;;;10.19;85.38;101365.25;5016076;28;45368;-69
2021/11/07 07:03:15;;;;;;;;;20.75;18.50;;;;;10.21;85.83;101362.56;5014676;28;45162;-69
2021/11/07 07:05:40;;;;;;;;;21.50;17.50;;;;;10.20;85.81;101363.47;5013465;28;46312;-70
2021/11/07 07:08:12;;;;;;;;;23.50;21.25;;;;;10.22;86.27;101356.41;5014526;28;45299;-69
2021/11/07 07:10:48;;;;;;;;;21.50;20.50;;;;;10.25;86.21;101358.13;5015592;28;45314;-69
2021/11/07 07:13:23;;;;;;;;;23.75;22.00;;;;;10.22;86.48;101346.78;5013933;28;45525;-69
2021/11/07 07:16:00;;;;;;;;;22.75;19.75;;;;;10.19;87.07;101346.84;5013322;28;47106;-69
2021/11/07 07:18:40;;;;;;;;;24.75;22.50;;;;;10.23;87.39;101350.25;5013552;28;45333;-69
2021/11/07 07:21:28;;;;;;;;;26.00;19.50;;;;;10.15;87.41;101341.72;5013805;28;45339;-71
2021/11/07 07:26:41;;;;;;;;;23.00;20.00;;;;;10.20;88.18;101352.97;5012915;28;45945;-70
2021/11/07 07:31:50;;;;;;;;;20.75;18.75;;;;;10.21;88.40;101349.44;5017368;28;45346;-69
2021/11/07 07:34:21;;;;;;;;;21.50;19.00;;;;;10.24;88.31;101365.13;5016166;28;45371;-69
2021/11/07 07:36:47;;;;;;;;;25.50;20.00;;;;;10.23;88.01;101368.66;5012822;28;47055;-70
2021/11/07 07:39:12;;;;;;;;;25.00;21.50;;;;;10.29;88.05;101368.50;5011575;28;45629;-70
2021/11/07 07:41:38;;;;;;;;;27.50;23.00;;;;;10.31;88.05;101366.69;5013554;28;45382;-69
2021/11/07 07:44:07;;;;;;;;;22.50;20.25;;;;;10.33;88.00;101370.13;5013338;28;45343;-69
2021/11/07 07:46:38;;;;;;;;;26.75;20.75;;;;;10.35;87.89;101372.75;5013087;28;47078;-69
2021/11/07 07:49:04;;;;;;;;;22.75;19.25;;;;;10.37;88.39;101381.47;5012206;27;45739;-70
2021/11/07 07:51:31;;;;;;;;;18.75;18.00;;;;;10.44;87.84;101383.03;5011897;28;45277;-69
2021/11/07 07:53:59;;;;;;;;;19.75;19.50;;;;;10.44;87.86;101364.63;5017084;28;45345;-69
2021/11/07 07:56:26;;;;;;;;;19.50;17.75;;;;;10.52;87.92;101369.66;5015293;28;46289;-69
2021/11/07 07:58:51;;;;;;;;;19.25;19.00;;;;;10.55;87.35;101355.59;5012884;28;45341;-68
2021/11/07 08:01:17;;;;;;;;;19.75;18.25;;;;;10.55;87.51;101353.81;5013198;28;45839;-69
2021/11/07 08:03:42;;;;;;;;;22.25;20.75;;;;;10.63;87.46;101358.88;5015249;28;45230;-69
2021/11/07 08:06:07;;;;;;;;;22.25;20.50;;;;;10.65;87.39;101354.44;5016995;28;47016;-70
2021/11/07 08:08:33;;;;;;;;;21.50;19.25;;;;;10.74;87.34;101369.94;5014299;28;45365;-69
2021/11/07 08:10:59;;;;;;;;;17.75;16.00;;;;;10.79;87.55;101357.53;5016012;28;45486;-69
2021/11/07 08:13:24;;;;;;;;;18.00;17.50;;;;;10.79;86.89;101352.25;5014888;28;45402;-68
2021/11/07 08:15:49;;;;;;;;;23.25;20.75;;;;;10.87;87.21;101364.34;5015428;28;45915;-69
2021/11/07 08:18:15;;;;;;;;;19.50;17.75;;;;;10.88;86.84;101369.56;5016698;28;45401;-69
2021/11/07 08:20:44;;;;;;;;;27.75;24.25;;;;;10.86;86.42;101366.13;5016109;28;45329;-68
2021/11/07 08:23:09;;;;;;;;;19.00;19.00;;;;;10.92;86.95;101371.19;5015893;28;45403;-69
2021/11/07 08:25:35;;;;;;;;;22.25;20.50;;;;;10.93;86.94;101362.41;5015377;28;45909;-69
2021/11/07 08:28:02;;;;;;;;;23.00;20.75;;;;;11.01;86.58;101358.69;5015789;28;45421;-70
2021/11/07 08:30:30;;;;;;;;;18.75;18.50;;;;;11.06;86.97;101362.03;5015610;28;45708;-68
2021/11/07 08:32:56;;;;;;;;;22.50;16.50;;;;;11.15;86.84;101351.22;5015619;28;45470;-70
2021/11/07 08:35:22;;;;;;;;;18.25;17.00;;;;;11.25;86.79;101351.81;5020425;28;45389;-69
2021/11/07 08:38:10;;;;;;;;;22.25;20.75;;;;;11.35;85.93;101349.75;5015401;28;45314;-70
2021/11/07 08:40:41;;;;;;;;;24.50;21.50;;;;;11.36;85.71;101326.00;5015811;28;45460;-69
2021/11/07 09:07:18;;;;;;;;;28.50;23.75;;;;;11.70;85.20;101334.59;5015883;28;45473;-69
2021/11/07 09:09:44;;;;;;;;;23.25;22.75;;;;;11.70;84.63;101334.59;5094153;27;45285;-69
2021/11/07 09:12:10;;;;;;;;;27.25;21.75;;;;;11.64;84.85;101337.41;5014858;28;45250;-70
2021/11/07 09:14:38;;;;;;;;;19.50;19.50;;;;;11.57;85.18;101339.41;5016347;28;45525;-69
2021/11/07 09:17:09;;;;;;;;;23.25;21.00;;;;;11.54;85.29;101340.34;5018799;28;46395;-69
2021/11/07 09:19:37;;;;;;;;;30.25;24.50;;;;;11.52;85.92;101334.25;5018672;28;45219;-71
2021/11/07 09:22:11;;;;;;;;;23.50;21.75;;;;;11.51;85.59;101340.44;5022619;28;45238;-69
2021/11/07 09:24:47;;;;;;;;;21.00;20.50;;;;;11.51;85.50;101348.34;5019522;28;45186;-69
2021/11/07 09:29:48;;;;;;;;;27.00;22.00;;;;;11.51;86.02;101335.19;5016953;28;45433;-70
2021/11/07 09:32:27;;;;;;;;;20.25;19.75;;;;;11.55;86.14;101341.22;5015570;28;45498;-70
2021/11/07 09:35:11;;;;;;;;;38.25;34.50;;;;;11.51;86.03;101319.38;5015250;28;45340;-71
2021/11/07 09:40:11;;;;;;;;;27.50;24.25;;;;;11.73;85.23;101334.50;5014834;28;45230;-69
2021/11/07 09:45:23;;;;;;;;;10.75;10.75;;;;;11.73;85.68;101329.22;5014911;28;45416;-69
2021/11/07 09:47:58;;;;;;;;;9.75;7.25;;;;;11.95;85.64;101328.50;5094645;27;45496;-68
2021/11/07 09:50:24;;;;;;;;;7.75;7.75;;;;;12.09;85.55;101328.94;5014404;28;45332;-70
2021/11/07 09:52:52;;;;;;;;;8.00;8.00;;;;;12.10;84.86;101335.06;5015760;28;45301;-68
2021/11/07 09:55:20;;;;;;;;;7.00;7.00;;;;;12.23;84.71;101346.03;5015257;28;45442;-68
2021/11/07 09:57:49;;;;;;;;;8.00;8.00;;;;;12.29;84.50;101353.75;5098514;27;47310;-70
2021/11/07 10:00:20;;;;;;;;;8.00;6.25;;;;;12.46;84.29;101349.66;5014508;28;45328;-72
2021/11/07 10:02:46;;;;;;;;;11.75;8.75;;;;;12.67;83.56;101340.09;5014575;28;45338;-68
2021/11/07 10:05:17;;;;;;;;;6.00;5.25;;;;;12.92;83.51;101349.72;5015122;28;45448;-70
2021/11/07 10:07:44;;;;;;;;;8.50;7.00;;;;;13.14;82.76;101353.28;5014541;28;45903;-69
2021/11/07 10:10:13;;;;;;;;;6.25;5.25;;;;;13.32;81.49;101357.91;5014650;28;45392;-69
2021/11/07 10:12:49;;;;;;;;;2.00;2.00;;;;;13.41;80.96;101362.84;5016213;28;45372;-70
2021/11/07 10:15:30;;;;;;;;;6.75;5.00;;;;;13.39;80.83;101360.25;5015989;28;45236;-69
2021/11/07 10:18:07;;;;;;;;;8.00;7.00;;;;;13.33;80.51;101351.72;5015119;28;46060;-69
2021/11/07 10:20:43;;;;;;;;;8.50;7.50;;;;;13.26;80.49;101367.81;5014793;28;45291;-69
2021/11/07 10:23:25;;;;;;;;;9.00;6.00;;;;;13.20;80.48;101351.31;5014842;28;45375;-68
2021/11/07 10:26:01;;;;;;;;;6.00;6.00;;;;;13.17;80.50;101349.66;5089252;27;45471;-72
2021/11/07 10:28:55;;;;;;;;;9.50;6.50;;;;;13.18;80.33;101355.78;5013938;28;46448;-71
2021/11/07 10:31:19;;;;;;;;;11.75;6.75;;;;;13.18;80.51;101353.16;5013991;28;45304;-71
2021/11/07 10:44:36;;;;;;;;;5.00;5.00;;;;;13.87;78.72;101376.00;5013466;28;45420;-70
2021/11/07 10:53:02;;;;;;;;;16.25;8.75;;;;;14.23;77.17;101375.38;5013007;28;45362;-70
2021/11/07 10:55:33;;;;;;;;;6.00;5.50;;;;;14.27;76.37;101373.47;5013210;28;45404;-70
2021/11/07 10:58:04;;;;;;;;;10.50;7.00;;;;;14.27;76.01;101376.13;5012030;28;45461;-71
2021/11/07 11:00:40;;;;;;;;;11.75;7.00;;;;;14.15;75.40;101349.25;5012133;28;47174;-69
2021/11/07 11:03:16;;;;;;;;;9.00;5.00;;;;;14.14;74.92;101363.41;5014195;28;45465;-69
2021/11/07 11:05:52;;;;;;;;;5.25;4.75;;;;;14.09;75.11;101361.88;5015190;28;45261;-70
2021/11/07 11:08:24;;;;;;;;;7.75;4.00;;;;;14.07;74.48;101364.59;5015869;28;45262;-71
2021/11/07 11:11:00;;;;;;;;;7.00;4.00;;;;;14.01;75.25;101367.50;5014113;27;45600;-69
2021/11/07 11:24:25;;;;;;;;;14.25;12.25;;;;;14.02;74.74;101346.28;5013170;28;45345;-70
2021/11/07 11:27:02;;;;;;;;;4.00;4.00;;;;;13.95;74.14;101351.91;5012259;28;45353;-71
2021/11/07 11:35:09;;;;;;;;;7.50;4.75;;;;;14.01;74.32;101323.38;5013903;28;45325;-70
2021/11/07 11:38:22;;;;;;;;;9.50;7.00;;;;;14.15;73.81;101335.16;5013225;28;45348;-69
2021/11/07 11:40:24;;;;;;;;;6.50;6.00;;;;;14.25;73.80;101325.03;5076806;27;46348;-69
2021/11/07 11:45:26;;;;;;;;;7.50;7.00;;;;;14.36;73.12;101314.84;5013592;28;45449;-71
2021/11/07 11:57:23;;;;;;;;;7.50;7.50;;;;;14.60;71.32;101319.97;5014392;28;45251;-69
2021/11/07 12:05:32;;;;;;;;;7.75;5.00;;;;;14.80;70.79;101318.22;5050311;27;45479;-69
2021/11/07 12:08:08;;;;;;;;;11.00;9.50;;;;;14.96;69.58;101313.94;5012539;28;45183;-70
2021/11/07 12:10:41;;;;;;;;;8.00;6.25;;;;;14.99;69.36;101319.09;5012585;28;45287;-69
2021/11/07 12:13:32;;;;;;;;;9.50;5.25;;;;;15.04;66.95;101313.56;5011921;28;45483;-69
2021/11/07 12:16:03;;;;;;;;;7.00;4.50;;;;;15.00;67.62;101327.91;5012258;28;46059;-70
2021/11/07 12:18:29;;;;;;;;;7.25;1.50;;;;;14.95;66.78;101324.59;5010725;28;45397;-71
2021/11/07 12:20:58;;;;;;;;;2.00;2.00;;;;;14.84;66.02;101318.03;5012781;28;45391;-69
2021/11/07 12:23:28;;;;;;;;;7.25;5.25;;;;;14.73;66.74;101315.00;5012974;28;45258;-71
2021/11/07 12:25:56;;;;;;;;;8.25;4.00;;;;;14.70;66.19;101304.56;5012862;28;45259;-69
2021/11/07 12:28:42;;;;;;;;;8.00;5.75;;;;;14.55;66.99;101309.59;5011263;28;45608;-69
2021/11/07 12:31:08;;;;;;;;;6.00;2.00;;;;;14.30;66.99;101312.47;5012829;28;45357;-71
2021/11/07 12:33:53;;;;;;;;;8.50;8.50;;;;;14.10;67.44;101318.63;5012285;28;45339;-70
2021/11/07 12:41:41;;;;;;;;;9.50;6.25;;;;;13.89;68.62;101305.41;5012616;28;46074;-70
2021/11/07 12:44:20;;;;;;;;;12.75;8.00;;;;;14.13;68.51;101310.56;5013326;28;45552;-71
2021/11/07 12:47:04;;;;;;;;;8.00;4.00;;;;;14.21;67.74;101295.19;5012563;28;45415;-69
2021/11/07 12:49:31;;;;;;;;;6.75;6.75;;;;;14.35;67.84;101296.41;5012585;28;45441;-71
2021/11/07 12:52:04;;;;;;;;;9.50;7.00;;;;;14.52;67.68;101291.22;5012778;28;45541;-71
2021/11/07 12:54:35;;;;;;;;;12.00;6.25;;;;;14.65;66.70;101298.59;5017537;28;45429;-71
2021/11/07 12:57:06;;;;;;;;;6.75;6.25;;;;;14.69;67.19;101293.06;5019034;28;47502;-72
2021/11/07 12:59:42;;;;;;;;;5.75;4.50;;;;;14.73;66.96;101294.66;5019434;28;45330;-71
2021/11/07 13:02:23;;;;;;;;;9.50;7.50;;;;;14.73;66.74;101292.03;5015935;28;45377;-71
2021/11/07 13:08:32;;;;;;;;;7.00;4.50;;;;;14.94;66.26;101321.13;5019445;27;45527;-69
2021/11/07 13:11:00;;;;;;;;;7.75;4.75;;;;;14.88;65.38;101303.69;5028189;27;45247;-69
2021/11/07 13:27:08;;;;;;;;;5.25;3.00;;;;;14.59;64.04;101289.13;5015566;28;45405;-71
2021/11/07 13:29:48;;;;;;;;;5.00;4.25;;;;;14.57;63.97;101290.97;5014942;28;47587;-71
2021/11/07 13:35:09;;;;;;;;;7.00;6.00;;;;;14.60;64.78;101297.00;5015089;28;45424;-72
2021/11/07 13:37:40;;;;;;;;;11.75;9.25;;;;;14.63;64.29;101295.16;5013647;28;45627;-70
2021/11/07 13:40:11;;;;;;;;;3.75;3.50;;;;;14.63;63.65;101305.75;5014664;28;46197;-70